sensor_id;sensor_type;location;lat;lon;timestamp;P1;durP1;ratioP1;P2;durP2;ratioP2
72127;SDS011;60000;51.030;7.024;2022-07-29T00:01:29;2.87;;;0.90;;
72127;SDS011;60000;51.030;7.024;2022-07-29T00:03:54;5.83;;;1.20;;
72127;SDS011;60000;51.030;7.024;2022-07-29T00:06:19;3.70;;;1.13;;
72127;SDS011;60000;51.030;7.024;2022-07-29T00:08:45;5.25;;;1.10;;
72127;SDS011;60000;51.030;7.024;2022-07-29T00:11:11;3.70;;;0.90;;
72127;SDS011;60000;51.030;7.024;2022-07-29T00:13:36;4.27;;;1.00;;
72127;SDS011;60000;51.030;7.024;2022-07-29T00:16:02;4.23;;;1.30;;
72127;SDS011;60000;51.030;7.024;2022-07-29T00:18:27;4.90;;;1.33;;
72127;SDS011;60000;51.030;7.024;2022-07-29T00:20:52;4.60;;;1.27;;
72127;SDS011;60000;51.030;7.024;2022-07-29T00:23:18;6.37;;;1.33;;
72127;SDS011;60000;51.030;7.024;2022-07-29T00:25:43;3.93;;;1.17;;
72127;SDS011;60000;51.030;7.024;2022-07-29T00:28:09;5.27;;;1.17;;
72127;SDS011;60000;51.030;7.024;2022-07-29T00:30:34;3.05;;;1.20;;
72127;SDS011;60000;51.030;7.024;2022-07-29T00:32:59;6.13;;;1.47;;
72127;SDS011;60000;51.030;7.024;2022-07-29T00:35:25;4.73;;;1.30;;
72127;SDS011;60000;51.030;7.024;2022-07-29T00:38:08;5.15;;;1.45;;
72127;SDS011;60000;51.030;7.024;2022-07-29T00:40:34;3.53;;;1.23;;
72127;SDS011;60000;51.030;7.024;2022-07-29T00:42:59;5.80;;;1.42;;
72127;SDS011;60000;51.030;7.024;2022-07-29T00:45:25;3.00;;;0.90;;
72127;SDS011;60000;51.030;7.024;2022-07-29T00:47:50;5.80;;;1.57;;
72127;SDS011;60000;51.030;7.024;2022-07-29T00:50:16;4.03;;;1.00;;
72127;SDS011;60000;51.030;7.024;2022-07-29T00:52:42;3.05;;;1.08;;
72127;SDS011;60000;51.030;7.024;2022-07-29T00:55:12;4.37;;;1.30;;
72127;SDS011;60000;51.030;7.024;2022-07-29T00:57:41;6.45;;;1.33;;
72127;SDS011;60000;51.030;7.024;2022-07-29T01:00:09;5.43;;;1.20;;
72127;SDS011;60000;51.030;7.024;2022-07-29T01:02:36;4.47;;;1.20;;
72127;SDS011;60000;51.030;7.024;2022-07-29T01:05:05;8.53;;;1.40;;
72127;SDS011;60000;51.030;7.024;2022-07-29T01:07:32;4.45;;;1.20;;
72127;SDS011;60000;51.030;7.024;2022-07-29T01:09:59;5.20;;;1.50;;
72127;SDS011;60000;51.030;7.024;2022-07-29T01:12:27;7.03;;;1.40;;
72127;SDS011;60000;51.030;7.024;2022-07-29T01:14:57;5.10;;;1.30;;
72127;SDS011;60000;51.030;7.024;2022-07-29T01:17:25;4.80;;;1.23;;
72127;SDS011;60000;51.030;7.024;2022-07-29T01:22:35;4.60;;;1.10;;
72127;SDS011;60000;51.030;7.024;2022-07-29T01:25:28;10.67;;;1.37;;
72127;SDS011;60000;51.030;7.024;2022-07-29T01:30:55;4.82;;;1.25;;
72127;SDS011;60000;51.030;7.024;2022-07-29T01:33:21;7.97;;;3.10;;
72127;SDS011;60000;51.030;7.024;2022-07-29T01:36:10;6.05;;;1.92;;
72127;SDS011;60000;51.030;7.024;2022-07-29T01:38:39;8.00;;;2.23;;
72127;SDS011;60000;51.030;7.024;2022-07-29T01:41:17;4.72;;;1.40;;
72127;SDS011;60000;51.030;7.024;2022-07-29T01:43:49;4.65;;;1.40;;
72127;SDS011;60000;51.030;7.024;2022-07-29T01:46:24;5.72;;;1.30;;
72127;SDS011;60000;51.030;7.024;2022-07-29T01:48:55;4.97;;;1.45;;
72127;SDS011;60000;51.030;7.024;2022-07-29T01:51:25;5.97;;;1.47;;
72127;SDS011;60000;51.030;7.024;2022-07-29T01:54:01;5.43;;;1.25;;
72127;SDS011;60000;51.030;7.024;2022-07-29T01:56:30;6.05;;;1.60;;
72127;SDS011;60000;51.030;7.024;2022-07-29T01:58:58;4.70;;;1.40;;
72127;SDS011;60000;51.030;7.024;2022-07-29T02:01:24;5.45;;;1.20;;
72127;SDS011;60000;51.030;7.024;2022-07-29T02:03:52;4.23;;;1.20;;
72127;SDS011;60000;51.030;7.024;2022-07-29T02:06:21;4.32;;;1.38;;
72127;SDS011;60000;51.030;7.024;2022-07-29T02:08:47;4.57;;;1.50;;
72127;SDS011;60000;51.030;7.024;2022-07-29T02:11:14;4.35;;;1.13;;
72127;SDS011;60000;51.030;7.024;2022-07-29T02:13:40;4.47;;;1.17;;
72127;SDS011;60000;51.030;7.024;2022-07-29T02:16:06;4.25;;;1.30;;
72127;SDS011;60000;51.030;7.024;2022-07-29T02:18:34;4.30;;;1.33;;
72127;SDS011;60000;51.030;7.024;2022-07-29T02:21:02;7.33;;;1.47;;
72127;SDS011;60000;51.030;7.024;2022-07-29T02:23:28;5.78;;;1.38;;
72127;SDS011;60000;51.030;7.024;2022-07-29T02:25:57;6.45;;;1.38;;
72127;SDS011;60000;51.030;7.024;2022-07-29T02:28:25;4.50;;;1.60;;
72127;SDS011;60000;51.030;7.024;2022-07-29T02:30:52;3.75;;;1.20;;
72127;SDS011;60000;51.030;7.024;2022-07-29T02:33:20;5.07;;;1.50;;
72127;SDS011;60000;51.030;7.024;2022-07-29T02:35:47;4.38;;;1.38;;
72127;SDS011;60000;51.030;7.024;2022-07-29T02:38:14;4.20;;;1.60;;
72127;SDS011;60000;51.030;7.024;2022-07-29T02:41:00;4.40;;;1.30;;
72127;SDS011;60000;51.030;7.024;2022-07-29T02:43:28;3.15;;;1.38;;
72127;SDS011;60000;51.030;7.024;2022-07-29T02:45:55;4.80;;;1.63;;
72127;SDS011;60000;51.030;7.024;2022-07-29T02:48:27;6.75;;;1.90;;
72127;SDS011;60000;51.030;7.024;2022-07-29T02:51:01;7.93;;;1.48;;
72127;SDS011;60000;51.030;7.024;2022-07-29T02:53:31;4.82;;;1.30;;
72127;SDS011;60000;51.030;7.024;2022-07-29T02:56:00;4.13;;;1.30;;
72127;SDS011;60000;51.030;7.024;2022-07-29T02:58:33;4.70;;;1.57;;
72127;SDS011;60000;51.030;7.024;2022-07-29T03:01:03;5.80;;;1.50;;
72127;SDS011;60000;51.030;7.024;2022-07-29T03:03:34;7.85;;;1.40;;
72127;SDS011;60000;51.030;7.024;2022-07-29T03:06:02;5.18;;;1.13;;
72127;SDS011;60000;51.030;7.024;2022-07-29T03:08:28;7.65;;;1.40;;
72127;SDS011;60000;51.030;7.024;2022-07-29T03:10:55;5.93;;;1.70;;
72127;SDS011;60000;51.030;7.024;2022-07-29T03:13:21;5.28;;;1.40;;
72127;SDS011;60000;51.030;7.024;2022-07-29T03:15:47;6.65;;;1.30;;
72127;SDS011;60000;51.030;7.024;2022-07-29T03:18:13;6.47;;;1.25;;
72127;SDS011;60000;51.030;7.024;2022-07-29T03:20:39;4.73;;;1.20;;
72127;SDS011;60000;51.030;7.024;2022-07-29T03:23:05;3.75;;;1.33;;
72127;SDS011;60000;51.030;7.024;2022-07-29T03:25:31;2.83;;;1.20;;
72127;SDS011;60000;51.030;7.024;2022-07-29T03:27:56;3.90;;;1.20;;
72127;SDS011;60000;51.030;7.024;2022-07-29T03:30:22;4.73;;;1.40;;
72127;SDS011;60000;51.030;7.024;2022-07-29T03:32:48;4.40;;;1.23;;
72127;SDS011;60000;51.030;7.024;2022-07-29T03:35:15;4.90;;;1.33;;
72127;SDS011;60000;51.030;7.024;2022-07-29T03:37:41;3.95;;;1.20;;
72127;SDS011;60000;51.030;7.024;2022-07-29T03:40:07;4.65;;;1.33;;
72127;SDS011;60000;51.030;7.024;2022-07-29T03:42:35;6.18;;;1.55;;
72127;SDS011;60000;51.030;7.024;2022-07-29T03:45:03;6.30;;;1.10;;
72127;SDS011;60000;51.030;7.024;2022-07-29T03:47:32;7.65;;;1.33;;
72127;SDS011;60000;51.030;7.024;2022-07-29T03:50:00;4.55;;;1.38;;
72127;SDS011;60000;51.030;7.024;2022-07-29T03:52:29;7.60;;;1.58;;
72127;SDS011;60000;51.030;7.024;2022-07-29T03:54:55;11.93;;;1.57;;
72127;SDS011;60000;51.030;7.024;2022-07-29T03:57:22;6.13;;;1.40;;
72127;SDS011;60000;51.030;7.024;2022-07-29T03:59:50;4.63;;;1.60;;
72127;SDS011;60000;51.030;7.024;2022-07-29T04:02:16;5.05;;;1.45;;
72127;SDS011;60000;51.030;7.024;2022-07-29T04:04:42;6.45;;;1.33;;
72127;SDS011;60000;51.030;7.024;2022-07-29T04:07:08;6.00;;;1.60;;
72127;SDS011;60000;51.030;7.024;2022-07-29T04:09:36;5.20;;;1.50;;
72127;SDS011;60000;51.030;7.024;2022-07-29T04:12:02;5.23;;;1.70;;
72127;SDS011;60000;51.030;7.024;2022-07-29T04:14:27;3.90;;;1.37;;
72127;SDS011;60000;51.030;7.024;2022-07-29T04:16:54;4.97;;;1.40;;
72127;SDS011;60000;51.030;7.024;2022-07-29T04:19:20;6.57;;;1.83;;
72127;SDS011;60000;51.030;7.024;2022-07-29T04:21:45;9.40;;;1.50;;
72127;SDS011;60000;51.030;7.024;2022-07-29T04:24:10;9.57;;;1.80;;
72127;SDS011;60000;51.030;7.024;2022-07-29T04:26:36;6.87;;;1.60;;
72127;SDS011;60000;51.030;7.024;2022-07-29T04:29:01;4.67;;;1.30;;
72127;SDS011;60000;51.030;7.024;2022-07-29T04:31:26;5.50;;;1.57;;
72127;SDS011;60000;51.030;7.024;2022-07-29T04:33:52;5.85;;;1.30;;
72127;SDS011;60000;51.030;7.024;2022-07-29T04:36:17;4.87;;;1.40;;
72127;SDS011;60000;51.030;7.024;2022-07-29T04:38:42;6.03;;;1.60;;
72127;SDS011;60000;51.030;7.024;2022-07-29T04:41:08;5.20;;;1.37;;
72127;SDS011;60000;51.030;7.024;2022-07-29T04:43:34;7.70;;;1.53;;
72127;SDS011;60000;51.030;7.024;2022-07-29T04:46:00;6.07;;;1.40;;
72127;SDS011;60000;51.030;7.024;2022-07-29T04:48:26;4.00;;;1.10;;
72127;SDS011;60000;51.030;7.024;2022-07-29T04:50:51;3.00;;;1.03;;
72127;SDS011;60000;51.030;7.024;2022-07-29T04:53:17;4.85;;;1.30;;
72127;SDS011;60000;51.030;7.024;2022-07-29T04:55:43;4.57;;;1.20;;
72127;SDS011;60000;51.030;7.024;2022-07-29T04:58:09;10.40;;;1.57;;
72127;SDS011;60000;51.030;7.024;2022-07-29T05:00:35;4.95;;;1.50;;
72127;SDS011;60000;51.030;7.024;2022-07-29T05:03:00;4.87;;;1.30;;
72127;SDS011;60000;51.030;7.024;2022-07-29T05:05:26;4.83;;;1.43;;
72127;SDS011;60000;51.030;7.024;2022-07-29T05:07:51;6.60;;;1.77;;
72127;SDS011;60000;51.030;7.024;2022-07-29T05:10:16;6.97;;;1.37;;
72127;SDS011;60000;51.030;7.024;2022-07-29T05:12:42;5.13;;;1.38;;
72127;SDS011;60000;51.030;7.024;2022-07-29T05:15:07;4.93;;;1.90;;
72127;SDS011;60000;51.030;7.024;2022-07-29T05:17:33;6.10;;;1.60;;
72127;SDS011;60000;51.030;7.024;2022-07-29T05:19:58;3.45;;;1.33;;
72127;SDS011;60000;51.030;7.024;2022-07-29T05:22:24;6.80;;;1.60;;
72127;SDS011;60000;51.030;7.024;2022-07-29T05:24:49;6.13;;;1.27;;
72127;SDS011;60000;51.030;7.024;2022-07-29T05:27:14;4.73;;;1.40;;
72127;SDS011;60000;51.030;7.024;2022-07-29T05:29:40;5.17;;;1.30;;
72127;SDS011;60000;51.030;7.024;2022-07-29T05:32:06;6.47;;;1.70;;
72127;SDS011;60000;51.030;7.024;2022-07-29T05:34:31;6.77;;;1.30;;
72127;SDS011;60000;51.030;7.024;2022-07-29T05:36:57;3.72;;;1.33;;
72127;SDS011;60000;51.030;7.024;2022-07-29T05:39:23;8.57;;;1.60;;
72127;SDS011;60000;51.030;7.024;2022-07-29T05:41:48;3.33;;;1.25;;
72127;SDS011;60000;51.030;7.024;2022-07-29T05:44:14;5.67;;;1.20;;
72127;SDS011;60000;51.030;7.024;2022-07-29T05:46:40;5.87;;;1.53;;
72127;SDS011;60000;51.030;7.024;2022-07-29T05:49:05;6.10;;;1.30;;
72127;SDS011;60000;51.030;7.024;2022-07-29T05:51:31;8.68;;;1.75;;
72127;SDS011;60000;51.030;7.024;2022-07-29T05:54:00;6.03;;;1.37;;
72127;SDS011;60000;51.030;7.024;2022-07-29T05:56:25;5.47;;;1.30;;
72127;SDS011;60000;51.030;7.024;2022-07-29T05:58:51;6.83;;;1.37;;
72127;SDS011;60000;51.030;7.024;2022-07-29T06:01:17;6.82;;;1.50;;
72127;SDS011;60000;51.030;7.024;2022-07-29T06:03:42;5.70;;;1.20;;
72127;SDS011;60000;51.030;7.024;2022-07-29T06:06:08;6.13;;;1.63;;
72127;SDS011;60000;51.030;7.024;2022-07-29T06:08:33;8.48;;;1.55;;
72127;SDS011;60000;51.030;7.024;2022-07-29T06:10:59;6.67;;;1.40;;
72127;SDS011;60000;51.030;7.024;2022-07-29T06:13:25;5.47;;;1.40;;
72127;SDS011;60000;51.030;7.024;2022-07-29T06:15:51;6.03;;;1.50;;
72127;SDS011;60000;51.030;7.024;2022-07-29T06:18:16;4.07;;;1.25;;
72127;SDS011;60000;51.030;7.024;2022-07-29T06:20:42;6.13;;;1.20;;
72127;SDS011;60000;51.030;7.024;2022-07-29T06:23:07;7.33;;;1.50;;
72127;SDS011;60000;51.030;7.024;2022-07-29T06:25:33;6.97;;;1.38;;
72127;SDS011;60000;51.030;7.024;2022-07-29T06:28:00;3.03;;;1.23;;
72127;SDS011;60000;51.030;7.024;2022-07-29T06:30:26;4.97;;;1.50;;
72127;SDS011;60000;51.030;7.024;2022-07-29T06:32:51;7.60;;;1.47;;
72127;SDS011;60000;51.030;7.024;2022-07-29T06:35:17;4.60;;;1.50;;
72127;SDS011;60000;51.030;7.024;2022-07-29T06:37:42;5.07;;;1.23;;
72127;SDS011;60000;51.030;7.024;2022-07-29T06:40:08;6.07;;;1.57;;
72127;SDS011;60000;51.030;7.024;2022-07-29T06:42:52;4.90;;;1.60;;
72127;SDS011;60000;51.030;7.024;2022-07-29T06:45:17;4.17;;;1.40;;
72127;SDS011;60000;51.030;7.024;2022-07-29T06:47:43;5.60;;;1.60;;
72127;SDS011;60000;51.030;7.024;2022-07-29T06:50:08;5.83;;;1.30;;
72127;SDS011;60000;51.030;7.024;2022-07-29T06:52:37;6.05;;;1.30;;
72127;SDS011;60000;51.030;7.024;2022-07-29T06:55:03;4.38;;;1.55;;
72127;SDS011;60000;51.030;7.024;2022-07-29T06:57:28;4.50;;;1.30;;
72127;SDS011;60000;51.030;7.024;2022-07-29T06:59:55;6.03;;;1.47;;
72127;SDS011;60000;51.030;7.024;2022-07-29T07:02:21;6.93;;;1.43;;
72127;SDS011;60000;51.030;7.024;2022-07-29T07:04:46;6.30;;;1.40;;
72127;SDS011;60000;51.030;7.024;2022-07-29T07:07:12;3.93;;;1.40;;
72127;SDS011;60000;51.030;7.024;2022-07-29T07:09:37;6.27;;;1.70;;
72127;SDS011;60000;51.030;7.024;2022-07-29T07:12:02;6.80;;;1.60;;
72127;SDS011;60000;51.030;7.024;2022-07-29T07:14:28;5.72;;;1.60;;
72127;SDS011;60000;51.030;7.024;2022-07-29T07:16:53;5.77;;;1.80;;
72127;SDS011;60000;51.030;7.024;2022-07-29T07:19:19;6.27;;;1.80;;
72127;SDS011;60000;51.030;7.024;2022-07-29T07:21:44;4.50;;;1.50;;
72127;SDS011;60000;51.030;7.024;2022-07-29T07:24:09;5.07;;;1.40;;
72127;SDS011;60000;51.030;7.024;2022-07-29T07:26:35;5.57;;;1.10;;
72127;SDS011;60000;51.030;7.024;2022-07-29T07:29:00;6.10;;;1.50;;
72127;SDS011;60000;51.030;7.024;2022-07-29T07:31:26;4.37;;;1.23;;
72127;SDS011;60000;51.030;7.024;2022-07-29T07:33:51;5.33;;;1.40;;
72127;SDS011;60000;51.030;7.024;2022-07-29T07:36:18;5.55;;;1.40;;
72127;SDS011;60000;51.030;7.024;2022-07-29T07:38:43;7.53;;;1.50;;
72127;SDS011;60000;51.030;7.024;2022-07-29T07:41:09;7.67;;;1.60;;
72127;SDS011;60000;51.030;7.024;2022-07-29T07:43:34;7.50;;;1.90;;
72127;SDS011;60000;51.030;7.024;2022-07-29T07:45:59;4.60;;;1.63;;
72127;SDS011;60000;51.030;7.024;2022-07-29T07:48:25;6.80;;;1.70;;
72127;SDS011;60000;51.030;7.024;2022-07-29T07:50:50;4.37;;;1.20;;
72127;SDS011;60000;51.030;7.024;2022-07-29T07:53:16;7.70;;;1.77;;
72127;SDS011;60000;51.030;7.024;2022-07-29T07:55:41;6.22;;;1.40;;
72127;SDS011;60000;51.030;7.024;2022-07-29T07:58:07;5.97;;;1.63;;
72127;SDS011;60000;51.030;7.024;2022-07-29T08:00:33;9.68;;;1.95;;
72127;SDS011;60000;51.030;7.024;2022-07-29T08:02:59;5.80;;;1.80;;
72127;SDS011;60000;51.030;7.024;2022-07-29T08:05:24;4.40;;;1.47;;
72127;SDS011;60000;51.030;7.024;2022-07-29T08:07:50;7.87;;;1.60;;
72127;SDS011;60000;51.030;7.024;2022-07-29T08:10:16;5.70;;;1.77;;
72127;SDS011;60000;51.030;7.024;2022-07-29T08:13:01;6.43;;;1.60;;
72127;SDS011;60000;51.030;7.024;2022-07-29T08:15:38;6.47;;;1.60;;
72127;SDS011;60000;51.030;7.024;2022-07-29T08:18:04;5.22;;;1.27;;
72127;SDS011;60000;51.030;7.024;2022-07-29T08:20:29;7.97;;;1.70;;
72127;SDS011;60000;51.030;7.024;2022-07-29T08:22:56;6.80;;;2.13;;
72127;SDS011;60000;51.030;7.024;2022-07-29T08:25:22;5.10;;;1.50;;
72127;SDS011;60000;51.030;7.024;2022-07-29T08:27:47;11.05;;;1.85;;
72127;SDS011;60000;51.030;7.024;2022-07-29T08:30:13;4.70;;;1.53;;
72127;SDS011;60000;51.030;7.024;2022-07-29T08:32:39;11.38;;;1.75;;
72127;SDS011;60000;51.030;7.024;2022-07-29T08:35:04;6.37;;;1.60;;
72127;SDS011;60000;51.030;7.024;2022-07-29T08:37:30;5.07;;;1.52;;
72127;SDS011;60000;51.030;7.024;2022-07-29T08:39:56;4.83;;;1.50;;
72127;SDS011;60000;51.030;7.024;2022-07-29T08:42:21;6.47;;;1.40;;
72127;SDS011;60000;51.030;7.024;2022-07-29T08:44:47;8.07;;;1.70;;
72127;SDS011;60000;51.030;7.024;2022-07-29T08:47:13;8.68;;;1.85;;
72127;SDS011;60000;51.030;7.024;2022-07-29T08:49:39;5.70;;;1.65;;
72127;SDS011;60000;51.030;7.024;2022-07-29T08:52:05;6.83;;;2.17;;
72127;SDS011;60000;51.030;7.024;2022-07-29T08:54:31;8.00;;;1.60;;
72127;SDS011;60000;51.030;7.024;2022-07-29T08:56:57;8.02;;;1.45;;
72127;SDS011;60000;51.030;7.024;2022-07-29T08:59:24;5.30;;;1.63;;
72127;SDS011;60000;51.030;7.024;2022-07-29T09:01:52;6.63;;;1.92;;
72127;SDS011;60000;51.030;7.024;2022-07-29T09:04:18;6.05;;;1.70;;
72127;SDS011;60000;51.030;7.024;2022-07-29T09:06:46;7.63;;;1.80;;
72127;SDS011;60000;51.030;7.024;2022-07-29T09:09:14;8.55;;;2.03;;
72127;SDS011;60000;51.030;7.024;2022-07-29T09:11:40;5.17;;;1.70;;
72127;SDS011;60000;51.030;7.024;2022-07-29T09:14:06;7.10;;;1.63;;
72127;SDS011;60000;51.030;7.024;2022-07-29T09:16:49;6.72;;;1.88;;
72127;SDS011;60000;51.030;7.024;2022-07-29T09:19:24;11.53;;;1.87;;
72127;SDS011;60000;51.030;7.024;2022-07-29T09:21:50;6.82;;;2.28;;
72127;SDS011;60000;51.030;7.024;2022-07-29T09:26:59;5.38;;;1.50;;
72127;SDS011;60000;51.030;7.024;2022-07-29T09:29:26;4.50;;;1.52;;
72127;SDS011;60000;51.030;7.024;2022-07-29T09:31:52;5.97;;;2.00;;
72127;SDS011;60000;51.030;7.024;2022-07-29T09:34:23;5.30;;;1.90;;
72127;SDS011;60000;51.030;7.024;2022-07-29T09:36:49;8.35;;;1.75;;
72127;SDS011;60000;51.030;7.024;2022-07-29T09:39:24;6.97;;;2.08;;
72127;SDS011;60000;51.030;7.024;2022-07-29T09:42:03;6.25;;;1.80;;
72127;SDS011;60000;51.030;7.024;2022-07-29T09:44:46;8.60;;;2.30;;
72127;SDS011;60000;51.030;7.024;2022-07-29T09:47:13;8.52;;;2.03;;
72127;SDS011;60000;51.030;7.024;2022-07-29T09:49:58;7.22;;;1.88;;
72127;SDS011;60000;51.030;7.024;2022-07-29T09:52:27;5.70;;;1.63;;
72127;SDS011;60000;51.030;7.024;2022-07-29T09:55:04;5.80;;;1.65;;
72127;SDS011;60000;51.030;7.024;2022-07-29T09:57:30;4.77;;;1.73;;
72127;SDS011;60000;51.030;7.024;2022-07-29T10:02:37;6.28;;;1.90;;
72127;SDS011;60000;51.030;7.024;2022-07-29T10:05:04;9.20;;;1.88;;
72127;SDS011;60000;51.030;7.024;2022-07-29T10:10:26;7.60;;;1.92;;
72127;SDS011;60000;51.030;7.024;2022-07-29T10:15:24;7.65;;;2.00;;
72127;SDS011;60000;51.030;7.024;2022-07-29T10:17:51;7.25;;;2.25;;
72127;SDS011;60000;51.030;7.024;2022-07-29T10:20:22;9.15;;;2.25;;
72127;SDS011;60000;51.030;7.024;2022-07-29T10:22:49;6.70;;;1.88;;
72127;SDS011;60000;51.030;7.024;2022-07-29T10:25:16;6.40;;;2.00;;
72127;SDS011;60000;51.030;7.024;2022-07-29T10:27:42;7.78;;;2.35;;
72127;SDS011;60000;51.030;7.024;2022-07-29T10:30:09;6.43;;;1.70;;
72127;SDS011;60000;51.030;7.024;2022-07-29T10:32:49;11.70;;;2.20;;
72127;SDS011;60000;51.030;7.024;2022-07-29T10:38:27;9.50;;;2.23;;
72127;SDS011;60000;51.030;7.024;2022-07-29T10:41:12;7.28;;;2.28;;
72127;SDS011;60000;51.030;7.024;2022-07-29T10:43:59;4.50;;;1.80;;
72127;SDS011;60000;51.030;7.024;2022-07-29T10:46:28;7.88;;;2.20;;
72127;SDS011;60000;51.030;7.024;2022-07-29T10:57:21;6.50;;;2.10;;
72127;SDS011;60000;51.030;7.024;2022-07-29T11:07:31;7.57;;;2.08;;
72127;SDS011;60000;51.030;7.024;2022-07-29T11:15:07;6.70;;;2.17;;
72127;SDS011;60000;51.030;7.024;2022-07-29T11:28:34;6.45;;;1.77;;
72127;SDS011;60000;51.030;7.024;2022-07-29T11:31:07;8.03;;;1.77;;
72127;SDS011;60000;51.030;7.024;2022-07-29T11:33:34;8.00;;;1.83;;
72127;SDS011;60000;51.030;7.024;2022-07-29T11:36:10;7.97;;;2.03;;
72127;SDS011;60000;51.030;7.024;2022-07-29T11:38:36;8.07;;;1.85;;
72127;SDS011;60000;51.030;7.024;2022-07-29T11:43:49;6.25;;;2.20;;
72127;SDS011;60000;51.030;7.024;2022-07-29T11:46:18;8.60;;;1.92;;
72127;SDS011;60000;51.030;7.024;2022-07-29T11:49:23;6.30;;;2.00;;
72127;SDS011;60000;51.030;7.024;2022-07-29T11:51:53;7.45;;;1.88;;
72127;SDS011;60000;51.030;7.024;2022-07-29T11:54:24;7.72;;;2.20;;
72127;SDS011;60000;51.030;7.024;2022-07-29T11:56:51;9.10;;;2.67;;
72127;SDS011;60000;51.030;7.024;2022-07-29T11:59:17;6.18;;;2.20;;
72127;SDS011;60000;51.030;7.024;2022-07-29T12:01:57;6.30;;;2.17;;
72127;SDS011;60000;51.030;7.024;2022-07-29T12:04:23;5.13;;;1.75;;
72127;SDS011;60000;51.030;7.024;2022-07-29T12:06:52;10.67;;;2.40;;
72127;SDS011;60000;51.030;7.024;2022-07-29T12:09:18;5.53;;;1.90;;
72127;SDS011;60000;51.030;7.024;2022-07-29T12:11:45;6.78;;;2.25;;
72127;SDS011;60000;51.030;7.024;2022-07-29T12:14:27;7.38;;;2.08;;
72127;SDS011;60000;51.030;7.024;2022-07-29T12:16:57;6.25;;;1.85;;
72127;SDS011;60000;51.030;7.024;2022-07-29T12:19:23;7.03;;;1.60;;
72127;SDS011;60000;51.030;7.024;2022-07-29T12:21:49;5.53;;;2.00;;
72127;SDS011;60000;51.030;7.024;2022-07-29T12:24:17;6.97;;;1.70;;
72127;SDS011;60000;51.030;7.024;2022-07-29T12:26:54;6.10;;;1.75;;
72127;SDS011;60000;51.030;7.024;2022-07-29T12:29:24;8.97;;;2.17;;
72127;SDS011;60000;51.030;7.024;2022-07-29T12:31:52;7.18;;;2.08;;
72127;SDS011;60000;51.030;7.024;2022-07-29T12:34:25;5.28;;;1.80;;
72127;SDS011;60000;51.030;7.024;2022-07-29T12:36:53;6.60;;;1.83;;
72127;SDS011;60000;51.030;7.024;2022-07-29T12:39:18;6.00;;;1.60;;
72127;SDS011;60000;51.030;7.024;2022-07-29T12:41:44;5.43;;;1.67;;
72127;SDS011;60000;51.030;7.024;2022-07-29T12:44:10;6.63;;;1.97;;
72127;SDS011;60000;51.030;7.024;2022-07-29T12:46:36;5.65;;;1.70;;
72127;SDS011;60000;51.030;7.024;2022-07-29T12:49:02;6.80;;;1.70;;
72127;SDS011;60000;51.030;7.024;2022-07-29T12:51:35;7.82;;;1.67;;
72127;SDS011;60000;51.030;7.024;2022-07-29T12:54:09;4.95;;;1.65;;
72127;SDS011;60000;51.030;7.024;2022-07-29T12:56:37;7.18;;;1.60;;
72127;SDS011;60000;51.030;7.024;2022-07-29T13:01:57;6.30;;;1.60;;
72127;SDS011;60000;51.030;7.024;2022-07-29T13:04:31;6.50;;;1.70;;
72127;SDS011;60000;51.030;7.024;2022-07-29T13:06:58;5.78;;;1.73;;
72127;SDS011;60000;51.030;7.024;2022-07-29T13:09:42;5.57;;;1.67;;
72127;SDS011;60000;51.030;7.024;2022-07-29T13:12:09;4.72;;;1.50;;
72127;SDS011;60000;51.030;7.024;2022-07-29T13:14:42;5.53;;;1.60;;
72127;SDS011;60000;51.030;7.024;2022-07-29T13:17:13;4.85;;;1.45;;
72127;SDS011;60000;51.030;7.024;2022-07-29T13:19:45;7.05;;;2.10;;
72127;SDS011;60000;51.030;7.024;2022-07-29T13:22:13;6.03;;;1.60;;
72127;SDS011;60000;51.030;7.024;2022-07-29T13:27:39;6.97;;;1.60;;
72127;SDS011;60000;51.030;7.024;2022-07-29T13:30:06;4.40;;;1.52;;
72127;SDS011;60000;51.030;7.024;2022-07-29T13:32:33;4.38;;;1.25;;
72127;SDS011;60000;51.030;7.024;2022-07-29T13:35:01;6.25;;;1.50;;
72127;SDS011;60000;51.030;7.024;2022-07-29T13:37:28;3.42;;;1.30;;
72127;SDS011;60000;51.030;7.024;2022-07-29T13:39:54;6.03;;;1.80;;
72127;SDS011;60000;51.030;7.024;2022-07-29T13:42:24;6.05;;;1.55;;
72127;SDS011;60000;51.030;7.024;2022-07-29T13:44:50;7.22;;;1.67;;
72127;SDS011;60000;51.030;7.024;2022-07-29T13:47:16;5.95;;;1.75;;
72127;SDS011;60000;51.030;7.024;2022-07-29T13:49:42;5.32;;;1.70;;
72127;SDS011;60000;51.030;7.024;2022-07-29T13:52:07;5.93;;;1.50;;
72127;SDS011;60000;51.030;7.024;2022-07-29T13:54:33;6.13;;;2.00;;
72127;SDS011;60000;51.030;7.024;2022-07-29T13:57:02;5.82;;;1.90;;
72127;SDS011;60000;51.030;7.024;2022-07-29T13:59:29;5.80;;;1.77;;
72127;SDS011;60000;51.030;7.024;2022-07-29T14:01:54;6.07;;;2.05;;
72127;SDS011;60000;51.030;7.024;2022-07-29T14:04:19;7.60;;;1.83;;
72127;SDS011;60000;51.030;7.024;2022-07-29T14:06:46;4.57;;;1.50;;
72127;SDS011;60000;51.030;7.024;2022-07-29T14:09:11;5.33;;;1.83;;
72127;SDS011;60000;51.030;7.024;2022-07-29T14:11:37;8.20;;;1.70;;
72127;SDS011;60000;51.030;7.024;2022-07-29T14:14:03;5.15;;;1.80;;
72127;SDS011;60000;51.030;7.024;2022-07-29T14:16:29;5.70;;;1.83;;
72127;SDS011;60000;51.030;7.024;2022-07-29T14:18:54;8.00;;;1.77;;
72127;SDS011;60000;51.030;7.024;2022-07-29T14:21:19;6.03;;;1.93;;
72127;SDS011;60000;51.030;7.024;2022-07-29T14:23:45;5.90;;;1.80;;
72127;SDS011;60000;51.030;7.024;2022-07-29T14:26:10;6.97;;;1.90;;
72127;SDS011;60000;51.030;7.024;2022-07-29T14:28:35;6.32;;;1.52;;
72127;SDS011;60000;51.030;7.024;2022-07-29T14:31:01;8.77;;;2.07;;
72127;SDS011;60000;51.030;7.024;2022-07-29T14:33:26;5.40;;;1.60;;
72127;SDS011;60000;51.030;7.024;2022-07-29T14:35:52;6.30;;;1.73;;
72127;SDS011;60000;51.030;7.024;2022-07-29T14:38:17;5.03;;;1.75;;
72127;SDS011;60000;51.030;7.024;2022-07-29T14:40:42;6.00;;;1.70;;
72127;SDS011;60000;51.030;7.024;2022-07-29T14:43:08;6.37;;;1.63;;
72127;SDS011;60000;51.030;7.024;2022-07-29T14:45:33;6.33;;;1.93;;
72127;SDS011;60000;51.030;7.024;2022-07-29T14:47:59;5.03;;;2.00;;
72127;SDS011;60000;51.030;7.024;2022-07-29T14:50:25;7.13;;;1.98;;
72127;SDS011;60000;51.030;7.024;2022-07-29T14:52:51;7.87;;;2.00;;
72127;SDS011;60000;51.030;7.024;2022-07-29T14:55:17;7.30;;;1.80;;
72127;SDS011;60000;51.030;7.024;2022-07-29T14:57:42;4.70;;;1.50;;
72127;SDS011;60000;51.030;7.024;2022-07-29T15:00:08;5.03;;;1.88;;
72127;SDS011;60000;51.030;7.024;2022-07-29T15:02:35;7.25;;;2.20;;
72127;SDS011;60000;51.030;7.024;2022-07-29T15:05:00;7.87;;;2.10;;
72127;SDS011;60000;51.030;7.024;2022-07-29T15:07:26;7.80;;;1.90;;
72127;SDS011;60000;51.030;7.024;2022-07-29T15:09:51;8.00;;;2.17;;
72127;SDS011;60000;51.030;7.024;2022-07-29T15:12:17;6.87;;;1.90;;
72127;SDS011;60000;51.030;7.024;2022-07-29T15:14:42;6.60;;;2.00;;
72127;SDS011;60000;51.030;7.024;2022-07-29T15:17:07;5.93;;;2.23;;
72127;SDS011;60000;51.030;7.024;2022-07-29T15:19:33;10.17;;;2.37;;
72127;SDS011;60000;51.030;7.024;2022-07-29T15:21:58;6.15;;;1.88;;
72127;SDS011;60000;51.030;7.024;2022-07-29T15:24:24;6.53;;;2.23;;
72127;SDS011;60000;51.030;7.024;2022-07-29T15:26:49;9.67;;;2.27;;
72127;SDS011;60000;51.030;7.024;2022-07-29T15:29:15;5.82;;;2.08;;
72127;SDS011;60000;51.030;7.024;2022-07-29T15:31:40;5.47;;;1.80;;
72127;SDS011;60000;51.030;7.024;2022-07-29T15:34:07;7.22;;;2.00;;
72127;SDS011;60000;51.030;7.024;2022-07-29T15:36:32;7.30;;;1.80;;
72127;SDS011;60000;51.030;7.024;2022-07-29T15:38:57;5.70;;;1.70;;
72127;SDS011;60000;51.030;7.024;2022-07-29T15:41:23;8.27;;;2.10;;
72127;SDS011;60000;51.030;7.024;2022-07-29T15:43:48;5.13;;;1.92;;
72127;SDS011;60000;51.030;7.024;2022-07-29T15:46:16;6.20;;;1.60;;
72127;SDS011;60000;51.030;7.024;2022-07-29T15:49:02;6.28;;;2.03;;
72127;SDS011;60000;51.030;7.024;2022-07-29T15:51:28;5.25;;;2.17;;